Terminal Aerodrome Forecast
Issued by NWS

Home | Current Version | Previous Version | Graphics & Text | Print | Product List | Glossary On
Versions: 1 2 3 4 5 6 7 8 9 10 11 12 13 14 15 16 17 18 19 20 21 22 23 24
000
FTUS43 KICT 151700
TAFRSL
TAF
KRSL 151734Z 1518/1618 01012KT P6SM BKN015
      TEMPO 1518/1520 SCT015
     FM152000 04014KT P6SM BKN035
     FM160300 08006KT P6SM SCT020 SCT080
     FM161400 08008KT P6SM BKN035=

USA.gov is the U.S. government's official web portal to all federal, state and local government web resources and services.